Time;durP1;ratioP1;P1;durP2;ratioP2;P2;SDS_P1;SDS_P2;PMS_P1;PMS_P2;Temp;Humidity;BMP_temperature;BMP_pressure;BME280_temperature;BME280_humidity;BME280_pressure;Samples;Min_cycle;Max_cycle;Signal;HPM_P1;HPM_P2
2022/04/15 00:02:09;;;;;;;2.38;1.25;;;;;;;20.89;45.79;101014.50;4985228;28;20671;-48
2022/04/15 00:04:35;;;;;;;3.72;1.05;;;;;;;20.85;45.89;101008.78;4987209;28;20047;-49
2022/04/15 00:07:02;;;;;;;2.83;1.30;;;;;;;20.83;45.70;101013.47;4986234;28;20031;-49
2022/04/15 00:09:27;;;;;;;2.72;1.38;;;;;;;20.83;46.00;101018.75;4984854;28;20027;-48
2022/04/15 00:11:53;;;;;;;2.40;1.27;;;;;;;20.79;45.83;101014.09;4986720;28;20037;-53
2022/04/15 00:14:19;;;;;;;2.33;1.25;;;;;;;20.78;46.03;101013.28;4987175;28;20038;-47
2022/04/15 00:16:45;;;;;;;2.13;1.30;;;;;;;20.77;46.03;101010.81;4986583;28;20102;-48
2022/04/15 00:19:13;;;;;;;2.70;1.27;;;;;;;20.76;46.10;101012.66;4986663;28;20521;-49
2022/04/15 00:21:39;;;;;;;2.42;1.25;;;;;;;20.75;46.29;101013.66;5000759;28;20100;-48
2022/04/15 00:24:05;;;;;;;2.58;1.00;;;;;;;20.74;46.14;101011.22;4984319;28;20458;-47
2022/04/15 00:26:31;;;;;;;3.15;1.30;;;;;;;20.72;46.10;101003.47;4987501;28;20038;-52
2022/04/15 00:28:57;;;;;;;3.75;1.38;;;;;;;20.71;46.21;101004.47;4986430;28;20081;-51
2022/04/15 00:31:23;;;;;;;2.95;1.58;;;;;;;20.68;46.05;100996.94;4986357;28;20117;-47
2022/04/15 00:33:49;;;;;;;2.83;0.98;;;;;;;20.69;46.23;100998.56;4986650;28;20117;-49
2022/04/15 00:36:14;;;;;;;4.03;1.60;;;;;;;20.69;46.00;100995.09;4986579;28;20605;-49
2022/04/15 00:38:40;;;;;;;2.45;1.13;;;;;;;20.70;45.91;100994.91;4985262;28;20037;-50
2022/04/15 00:41:05;;;;;;;2.97;1.50;;;;;;;20.70;46.05;101002.84;4985947;28;20105;-50
2022/04/15 00:43:32;;;;;;;1.73;0.90;;;;;;;20.69;46.11;100993.28;4985139;28;20108;-45
2022/04/15 00:46:08;;;;;;;2.58;1.58;;;;;;;20.68;46.11;100986.34;4986230;28;20034;-52
2022/04/15 00:48:35;;;;;;;3.40;1.92;;;;;;;20.68;45.95;100986.34;5001487;28;20031;-50
2022/04/15 00:51:00;;;;;;;3.75;1.27;;;;;;;20.69;46.15;100993.28;4985373;28;20034;-52
2022/04/15 00:53:32;;;;;;;2.88;1.40;;;;;;;20.68;45.97;100991.63;4984519;28;20153;-53
2022/04/15 00:56:01;;;;;;;1.65;1.17;;;;;;;20.69;45.95;100992.47;4985454;28;20769;-48
2022/04/15 00:58:27;;;;;;;3.92;1.70;;;;;;;20.69;46.16;100989.81;5003561;28;20034;-49
2022/04/15 01:00:56;;;;;;;1.40;1.00;;;;;;;20.69;45.79;100987.16;4991491;28;20042;-48
2022/04/15 01:03:22;;;;;;;2.40;1.25;;;;;;;20.69;45.91;100987.16;5004436;28;20041;-51
2022/04/15 01:05:49;;;;;;;2.22;1.58;;;;;;;20.69;45.95;100993.28;4987946;28;20125;-50
2022/04/15 01:08:19;;;;;;;2.75;1.10;;;;;;;20.69;46.00;100998.56;4990181;28;20034;-50
2022/04/15 01:10:46;;;;;;;1.98;0.95;;;;;;;20.68;46.08;101002.22;4989754;28;20034;-49
2022/04/15 01:13:13;;;;;;;2.78;1.20;;;;;;;20.68;45.75;100996.94;4990387;28;20026;-52
2022/04/15 01:15:40;;;;;;;3.88;1.20;;;;;;;20.68;45.87;101002.22;4989285;28;20097;-46
2022/04/15 01:18:06;;;;;;;2.95;1.30;;;;;;;20.67;45.87;100990.00;4991205;28;20114;-50
2022/04/15 01:20:31;;;;;;;1.75;1.20;;;;;;;20.66;45.86;100993.66;4987925;28;20144;-48
2022/04/15 01:23:07;;;;;;;2.75;1.33;;;;;;;20.63;46.08;100985.31;4990045;28;20457;-47
2022/04/15 01:25:33;;;;;;;3.88;1.10;;;;;;;20.64;46.02;100982.47;4988329;28;20034;-50
2022/04/15 01:27:59;;;;;;;2.85;1.38;;;;;;;20.63;46.05;100977.34;4990492;28;20604;-50
2022/04/15 01:30:25;;;;;;;2.70;1.10;;;;;;;20.61;46.13;100969.63;4989428;28;20271;-50
2022/04/15 01:32:51;;;;;;;1.88;0.73;;;;;;;20.60;46.15;100972.47;4989704;28;20034;-52
2022/04/15 01:35:18;;;;;;;1.73;1.02;;;;;;;20.59;45.90;100971.63;4990519;28;20018;-47
2022/04/15 01:37:45;;;;;;;2.88;1.33;;;;;;;20.57;46.10;100973.66;4989941;28;20846;-49
2022/04/15 01:40:11;;;;;;;2.08;1.15;;;;;;;20.58;45.97;100972.66;4988243;28;20473;-52
2022/04/15 01:42:38;;;;;;;1.90;1.20;;;;;;;20.59;46.12;100968.19;4989964;28;20042;-49
2022/04/15 01:45:08;;;;;;;2.08;1.00;;;;;;;20.59;45.93;100970.81;4990556;28;20038;-48
2022/04/15 01:47:35;;;;;;;3.58;1.45;;;;;;;20.57;46.19;100976.31;4988344;28;20034;-47
2022/04/15 01:50:02;;;;;;;4.18;1.15;;;;;;;20.57;46.18;100973.66;4985146;28;20027;-48
2022/04/15 01:52:28;;;;;;;1.98;1.13;;;;;;;20.58;46.14;100975.31;4988544;28;20054;-49
2022/04/15 01:54:53;;;;;;;2.22;0.90;;;;;;;20.56;46.18;100972.03;4988701;28;20030;-48
2022/04/15 01:57:19;;;;;;;3.30;1.10;;;;;;;20.55;46.11;100970.41;4989318;28;20027;-50
2022/04/15 01:59:45;;;;;;;1.60;1.20;;;;;;;20.56;46.20;100973.88;4988600;28;20132;-50
2022/04/15 02:02:10;;;;;;;1.90;1.10;;;;;;;20.53;45.88;100961.84;4990187;28;20351;-51
2022/04/15 02:04:36;;;;;;;2.22;1.00;;;;;;;20.52;46.27;100962.84;4989350;28;20699;-50
2022/04/15 02:07:02;;;;;;;1.70;0.90;;;;;;;20.51;45.98;100969.97;4988627;28;20528;-47
2022/04/15 02:09:28;;;;;;;2.80;1.10;;;;;;;20.49;46.24;100961.41;4989234;28;20034;-48
2022/04/15 02:11:54;;;;;;;3.72;1.05;;;;;;;20.49;46.30;100957.94;5293353;22;20135;-46
2022/04/15 02:14:20;;;;;;;1.40;0.93;;;;;;;20.47;46.34;100963.44;4989551;28;20039;-50
2022/04/15 02:16:47;;;;;;;2.13;0.80;;;;;;;20.46;45.97;100961.81;4989559;28;20031;-51
2022/04/15 02:19:13;;;;;;;2.60;0.88;;;;;;;20.45;46.02;100964.66;4989444;28;20022;-52
2022/04/15 02:21:39;;;;;;;3.05;0.80;;;;;;;20.43;46.03;100964.84;4988358;28;20034;-50
2022/04/15 02:24:05;;;;;;;2.28;1.13;;;;;;;20.43;46.27;100966.69;4988678;28;20040;-49
2022/04/15 02:26:31;;;;;;;5.05;1.15;;;;;;;20.42;46.22;100957.91;4990759;28;20149;-48
2022/04/15 02:28:57;;;;;;;1.75;1.02;;;;;;;20.43;46.33;100964.84;4990682;28;20041;-48
2022/04/15 02:31:22;;;;;;;3.05;1.08;;;;;;;20.44;46.13;100968.31;4990368;28;20065;-48
2022/04/15 02:33:48;;;;;;;1.30;0.80;;;;;;;20.43;46.19;100962.19;4990509;28;20484;-48
2022/04/15 02:36:14;;;;;;;1.40;0.80;;;;;;;20.45;45.96;100959.34;4989436;28;20438;-45
2022/04/15 02:38:39;;;;;;;1.40;0.63;;;;;;;20.45;46.38;100967.28;5005213;28;20096;-49
2022/04/15 02:41:05;;;;;;;2.25;1.10;;;;;;;20.45;46.26;100967.28;4989477;28;20117;-46
2022/04/15 02:43:31;;;;;;;1.83;0.88;;;;;;;20.47;46.28;100968.72;4990468;28;20489;-50
2022/04/15 02:46:02;;;;;;;1.77;0.90;;;;;;;20.45;46.39;100965.47;4990532;28;20033;-49
2022/04/15 02:48:29;;;;;;;2.08;0.90;;;;;;;20.47;46.34;100967.91;4990587;28;20100;-49
2022/04/15 02:50:55;;;;;;;2.38;0.88;;;;;;;20.47;45.79;100968.72;4988754;28;20037;-50
2022/04/15 02:53:22;;;;;;;1.75;0.82;;;;;;;20.47;46.24;100968.72;4990243;28;20030;-48
2022/04/15 02:55:48;;;;;;;2.72;1.20;;;;;;;20.46;46.19;100961.00;4988924;28;20025;-51
2022/04/15 02:58:14;;;;;;;1.30;1.00;;;;;;;20.45;46.23;100965.47;4989859;28;20116;-50
2022/04/15 03:00:39;;;;;;;2.45;1.40;;;;;;;20.46;46.31;100963.63;5003302;28;20038;-54
2022/04/15 03:03:04;;;;;;;2.47;0.90;;;;;;;20.44;46.04;100968.31;4989083;28;20026;-49
2022/04/15 03:05:30;;;;;;;1.90;1.00;;;;;;;20.43;46.33;100966.69;4989687;28;20034;-47
2022/04/15 03:07:56;;;;;;;1.77;0.90;;;;;;;20.42;46.03;100970.34;4989909;28;20401;-50
2022/04/15 03:10:22;;;;;;;3.38;1.02;;;;;;;20.41;46.20;100966.06;4989269;28;20073;-50
2022/04/15 03:12:48;;;;;;;2.92;0.70;;;;;;;20.40;46.31;100967.06;4989515;28;20741;-47
2022/04/15 03:15:13;;;;;;;1.73;1.05;;;;;;;20.39;46.06;100965.44;4989233;28;20109;-49
2022/04/15 03:17:39;;;;;;;1.88;1.10;;;;;;;20.38;46.39;100961.16;4989245;28;20030;-50
2022/04/15 03:20:06;;;;;;;1.75;0.90;;;;;;;20.37;46.45;100959.50;4988058;28;20030;-51
2022/04/15 03:22:42;;;;;;;2.38;0.85;;;;;;;20.35;46.20;100964.97;4989838;28;20034;-48
2022/04/15 03:25:08;;;;;;;;;;;;;;;20.26;46.44;100957.41;4989305;28;20121;-49
2022/04/15 03:27:34;;;;;;;1.85;0.70;;;;;;;20.28;46.33;100963.34;4989526;28;19932;-48
2022/04/15 03:30:00;;;;;;;1.77;1.15;;;;;;;20.30;46.46;100954.19;4988237;28;20474;-47
2022/04/15 03:32:25;;;;;;;2.00;1.27;;;;;;;20.31;46.43;100952.38;4989060;28;20034;-51
2022/04/15 03:34:52;;;;;;;3.08;1.10;;;;;;;20.30;46.39;100950.72;4988589;28;20041;-48
2022/04/15 03:37:18;;;;;;;1.90;1.10;;;;;;;20.30;46.45;100951.53;5004428;28;20027;-50
2022/04/15 03:39:43;;;;;;;1.48;0.98;;;;;;;20.29;46.40;100943.81;4988546;28;20042;-50
2022/04/15 03:42:09;;;;;;;1.67;0.73;;;;;;;20.30;46.24;100948.09;4989264;28;20065;-50
2022/04/15 03:44:35;;;;;;;1.88;0.80;;;;;;;20.30;46.45;100943.59;4988454;28;20477;-49
2022/04/15 03:47:00;;;;;;;2.90;0.70;;;;;;;20.31;46.35;100949.72;4989257;28;20539;-50
2022/04/15 03:49:26;;;;;;;1.65;1.10;;;;;;;20.31;46.22;100952.38;4987939;28;20034;-48
2022/04/15 03:51:52;;;;;;;1.65;0.90;;;;;;;20.30;46.15;100956.03;4988833;28;20033;-47
2022/04/15 03:54:17;;;;;;;2.15;1.23;;;;;;;20.30;46.37;100961.31;4987923;28;20045;-48
2022/04/15 03:56:43;;;;;;;2.88;1.17;;;;;;;20.30;46.44;100966.59;4980427;28;20034;-48
2022/04/15 03:59:08;;;;;;;3.53;1.10;;;;;;;20.29;46.31;100962.31;4987983;28;20386;-48
2022/04/15 04:01:34;;;;;;;2.10;0.80;;;;;;;20.29;46.17;100964.97;4988529;28;20367;-49
2022/04/15 04:03:59;;;;;;;2.22;0.90;;;;;;;20.29;46.46;100954.38;4988667;28;20023;-48
2022/04/15 04:06:25;;;;;;;2.33;0.90;;;;;;;20.29;46.48;100959.69;4989180;28;20058;-48
2022/04/15 04:08:50;;;;;;;1.42;0.82;;;;;;;20.29;46.32;100971.06;4989186;28;20535;-46
2022/04/15 04:11:17;;;;;;;1.38;0.95;;;;;;;20.31;46.29;100976.19;4987855;28;20120;-49
2022/04/15 04:13:43;;;;;;;1.30;0.82;;;;;;;20.30;46.41;100972.72;4988622;28;20489;-52
2022/04/15 04:16:09;;;;;;;2.65;1.27;;;;;;;20.30;46.11;100964.78;4987235;28;20034;-48
2022/04/15 04:18:34;;;;;;;2.08;1.00;;;;;;;20.30;46.28;100966.59;4988545;28;20105;-52
2022/04/15 04:21:00;;;;;;;2.63;1.13;;;;;;;20.30;46.45;100966.59;4987353;28;20031;-49
2022/04/15 04:23:25;;;;;;;2.22;1.38;;;;;;;20.31;46.38;100973.53;4987258;28;20129;-46
2022/04/15 04:25:51;;;;;;;1.30;0.70;;;;;;;20.31;46.36;100973.53;4986460;28;20065;-50
2022/04/15 04:28:16;;;;;;;2.00;1.05;;;;;;;20.29;46.08;100983.50;4988229;28;20034;-52
2022/04/15 04:30:42;;;;;;;2.78;0.98;;;;;;;20.28;46.43;100980.03;4986737;28;20042;-48
2022/04/15 04:33:07;;;;;;;2.72;1.00;;;;;;;20.28;46.15;100989.78;4988266;28;20022;-47
2022/04/15 04:35:33;;;;;;;1.92;1.00;;;;;;;20.27;46.01;100996.09;4988064;28;20034;-50
2022/04/15 04:37:58;;;;;;;3.40;0.90;;;;;;;20.26;45.94;100991.81;4986936;28;20481;-49
2022/04/15 04:40:24;;;;;;;2.10;1.27;;;;;;;20.25;46.27;100996.28;4987501;28;20038;-51
2022/04/15 04:42:51;;;;;;;1.42;0.82;;;;;;;20.25;46.18;100992.81;4988033;28;20035;-50
2022/04/15 04:45:17;;;;;;;2.30;1.10;;;;;;;20.25;46.14;101003.41;5002122;28;20037;-47
2022/04/15 04:47:45;;;;;;;1.92;1.02;;;;;;;20.24;46.25;100999.13;4986933;28;20030;-52
2022/04/15 04:50:11;;;;;;;1.63;1.00;;;;;;;20.22;46.09;100994.03;4987765;28;20465;-50
2022/04/15 04:52:38;;;;;;;1.67;0.82;;;;;;;20.24;46.08;101004.44;4988403;28;20023;-50
2022/04/15 04:55:04;;;;;;;2.85;1.05;;;;;;;20.24;46.26;100999.13;4986861;28;20059;-51
2022/04/15 04:57:30;;;;;;;1.35;0.90;;;;;;;20.24;46.40;101004.44;4987912;28;20026;-53
2022/04/15 04:59:56;;;;;;;2.35;1.00;;;;;;;20.24;46.48;101009.72;4988354;28;20054;-49
2022/04/15 05:02:22;;;;;;;2.88;0.85;;;;;;;20.22;46.44;101009.91;4999816;28;20042;-52
2022/04/15 05:04:48;;;;;;;3.10;0.70;;;;;;;20.21;46.44;101006.44;4986684;28;20097;-48
2022/04/15 05:07:14;;;;;;;1.55;1.15;;;;;;;20.21;46.45;101010.91;4987443;28;20026;-50
2022/04/15 05:09:42;;;;;;;1.70;1.00;;;;;;;20.20;46.22;101014.56;4986116;28;20066;-50
2022/04/15 05:12:12;;;;;;;3.65;0.68;;;;;;;20.20;46.26;101018.03;4987633;28;20038;-48
2022/04/15 05:14:38;;;;;;;1.35;0.75;;;;;;;20.18;46.34;101017.41;4984728;28;20032;-47
2022/04/15 05:17:04;;;;;;;3.50;1.13;;;;;;;20.18;46.29;101012.13;4986949;28;20022;-51
2022/04/15 05:19:29;;;;;;;1.75;0.70;;;;;;;20.18;46.54;101025.34;4982057;28;20034;-47
2022/04/15 05:21:55;;;;;;;2.42;1.10;;;;;;;20.17;46.29;101022.91;4987843;28;20026;-50
2022/04/15 05:24:21;;;;;;;1.33;0.75;;;;;;;20.16;46.59;101019.44;4986006;28;20027;-51
2022/04/15 05:26:46;;;;;;;2.65;1.00;;;;;;;20.16;46.59;101023.91;4987471;28;20022;-46
2022/04/15 05:29:12;;;;;;;2.58;0.90;;;;;;;20.15;46.55;101025.72;4986684;28;20104;-52
2022/04/15 05:31:37;;;;;;;2.78;1.05;;;;;;;20.14;46.49;101026.75;4985628;28;20019;-53
2022/04/15 05:34:04;;;;;;;1.50;0.85;;;;;;;20.15;46.57;101031.03;5001465;28;20026;-48
2022/04/15 05:36:29;;;;;;;3.05;1.00;;;;;;;20.13;46.66;101030.41;4986108;28;20031;-50
2022/04/15 05:38:55;;;;;;;1.50;0.80;;;;;;;20.14;46.37;101039.97;4988610;28;20049;-51
2022/04/15 05:41:20;;;;;;;2.42;0.95;;;;;;;20.14;46.61;101034.69;4986976;28;20114;-53
2022/04/15 05:43:46;;;;;;;1.50;0.80;;;;;;;20.16;46.64;101037.94;4989597;28;20026;-53
2022/04/15 05:46:12;;;;;;;3.53;1.13;;;;;;;20.17;46.48;101034.28;4988716;28;20042;-48
2022/04/15 05:48:38;;;;;;;2.15;0.98;;;;;;;20.17;46.40;101039.59;4990355;28;20426;-52
2022/04/15 05:51:03;;;;;;;1.48;0.80;;;;;;;20.19;46.70;101039.41;4988705;28;20034;-54
2022/04/15 05:53:29;;;;;;;1.85;1.10;;;;;;;20.18;46.40;101038.56;4990008;28;20064;-52
2022/04/15 05:55:55;;;;;;;1.83;0.90;;;;;;;20.19;46.64;101045.50;4988829;28;20034;-52
2022/04/15 05:58:21;;;;;;;2.08;1.13;;;;;;;20.20;46.42;101043.69;4986344;28;20030;-50
2022/04/15 06:00:46;;;;;;;1.70;0.80;;;;;;;20.20;46.36;101039.19;4987687;28;20027;-50
2022/04/15 06:03:12;;;;;;;1.42;0.80;;;;;;;20.21;46.42;101042.66;4990629;28;20367;-50
2022/04/15 06:05:37;;;;;;;2.75;1.13;;;;;;;20.19;46.60;101042.03;4990453;28;20054;-51
2022/04/15 06:08:03;;;;;;;1.88;1.02;;;;;;;20.19;46.30;101036.75;4991234;28;20113;-48
2022/04/15 06:10:30;;;;;;;2.17;0.98;;;;;;;20.18;46.45;101040.41;4989284;28;20022;-48
2022/04/15 06:13:00;;;;;;;2.88;0.85;;;;;;;20.18;46.52;101045.69;5005716;28;20407;-51
2022/04/15 06:15:31;;;;;;;2.92;1.00;;;;;;;20.17;46.60;101042.22;4990851;28;20504;-49
2022/04/15 06:18:05;;;;;;;1.38;0.73;;;;;;;20.13;46.77;101035.69;4991210;28;20043;-52
2022/04/15 06:20:31;;;;;;;1.77;0.90;;;;;;;20.14;46.51;101047.09;4990309;28;20040;-52
2022/04/15 06:22:57;;;;;;;1.85;1.08;;;;;;;20.13;46.79;101035.69;4990924;28;20409;-49
2022/04/15 06:25:22;;;;;;;2.58;1.20;;;;;;;20.13;46.75;101037.53;4989062;28;20035;-53
2022/04/15 06:27:50;;;;;;;4.75;0.80;;;;;;;20.13;46.96;101035.69;4991022;28;20034;-51
2022/04/15 06:30:16;;;;;;;1.45;0.82;;;;;;;20.12;46.72;101036.69;4989340;28;20034;-45
2022/04/15 06:32:41;;;;;;;1.20;0.80;;;;;;;20.12;46.60;101043.81;4989791;28;20523;-51
2022/04/15 06:35:07;;;;;;;1.55;0.73;;;;;;;20.12;46.64;101039.34;4989129;28;20030;-48
2022/04/15 06:37:33;;;;;;;1.52;0.95;;;;;;;20.11;46.62;101042.19;5002814;28;20219;-48
2022/04/15 06:39:58;;;;;;;1.42;0.65;;;;;;;20.11;46.74;101042.19;4989604;28;20101;-50
2022/04/15 06:42:26;;;;;;;2.38;0.68;;;;;;;20.11;46.74;101048.28;4990601;28;20030;-50
2022/04/15 06:44:52;;;;;;;3.08;1.15;;;;;;;20.10;46.72;101041.38;4989192;28;20041;-48
2022/04/15 06:47:18;;;;;;;2.65;0.80;;;;;;;20.13;46.81;101042.81;4990060;28;20026;-49
2022/04/15 06:49:45;;;;;;;3.65;0.80;;;;;;;20.12;46.73;101038.53;4990009;28;20038;-49
2022/04/15 06:52:11;;;;;;;3.08;0.80;;;;;;;20.11;47.01;101042.19;4989926;28;20458;-52
2022/04/15 06:54:37;;;;;;;4.80;0.90;;;;;;;20.10;46.79;101046.66;4989065;28;20042;-54
2022/04/15 06:57:03;;;;;;;1.45;0.75;;;;;;;20.10;46.79;101041.38;4988890;28;20026;-51
2022/04/15 06:59:28;;;;;;;5.13;1.45;;;;;;;20.10;46.99;101046.66;4988613;28;20069;-53
2022/04/15 07:02:01;;;;;;;1.92;0.80;;;;;;;20.10;46.91;101040.56;4989515;28;20189;-49
2022/04/15 07:04:27;;;;;;;3.28;0.77;;;;;;;20.10;46.75;101045.84;5004596;28;20104;-53
2022/04/15 07:06:54;;;;;;;3.13;1.13;;;;;;;20.08;46.57;101040.75;4989093;28;20385;-54
2022/04/15 07:09:20;;;;;;;2.03;0.90;;;;;;;20.08;46.73;101045.22;4989799;28;20486;-50
2022/04/15 07:11:45;;;;;;;1.88;1.05;;;;;;;20.08;46.82;101038.09;4988885;28;20137;-49
2022/04/15 07:14:11;;;;;;;2.00;0.77;;;;;;;20.06;47.02;101040.13;4989992;28;20458;-50
2022/04/15 07:16:36;;;;;;;1.52;0.95;;;;;;;20.07;47.12;101035.63;4988844;28;20080;-50
2022/04/15 07:19:04;;;;;;;1.92;0.82;;;;;;;20.06;47.01;101039.28;4989561;28;20093;-49
2022/04/15 07:21:48;;;;;;;2.67;1.05;;;;;;;20.05;47.38;101040.31;4999741;28;20053;-51
2022/04/15 07:24:14;;;;;;;3.15;0.85;;;;;;;20.08;47.31;101042.56;5011336;28;20121;-47
2022/04/15 07:26:39;;;;;;;2.08;1.15;;;;;;;20.09;47.50;101045.03;4984553;28;20470;-47
2022/04/15 07:29:05;;;;;;;5.00;0.90;;;;;;;20.13;48.51;101038.34;4987743;28;20028;-46
2022/04/15 07:31:30;;;;;;;6.13;1.65;;;;;;;20.19;48.93;101047.34;4987920;28;20586;-48
2022/04/15 07:33:56;;;;;;;10.60;1.65;;;;;;;20.29;50.09;101044.34;5004107;28;20027;-46
2022/04/15 07:39:00;;;;;;;7.13;1.85;;;;;;;20.44;50.60;101032.66;4988341;28;20035;-47
2022/04/15 07:41:25;;;;;;;10.23;5.88;;;;;;;20.48;52.69;101028.59;4987481;28;20469;-44
2022/04/15 07:43:51;;;;;;;6.43;2.38;;;;;;;20.46;51.74;101029.81;4988038;28;20022;-43
2022/04/15 07:46:17;;;;;;;3.05;1.27;;;;;;;20.42;51.33;101024.09;4988443;28;20206;-46
2022/04/15 07:48:42;;;;;;;2.97;1.15;;;;;;;20.39;50.51;101026.31;4987722;28;20033;-43
2022/04/15 07:51:09;;;;;;;2.38;1.13;;;;;;;20.36;50.01;101029.31;4988348;28;20034;-42
2022/04/15 07:53:34;;;;;;;5.45;1.38;;;;;;;20.35;49.64;101028.47;4989087;28;20030;-44
2022/04/15 07:56:01;;;;;;;1.23;0.80;;;;;;;20.32;49.82;101018.28;4986604;28;20501;-43
2022/04/15 07:58:26;;;;;;;2.45;0.90;;;;;;;20.32;49.32;101014.84;4984177;28;20040;-47
2022/04/15 08:00:52;;;;;;;2.35;0.60;;;;;;;20.30;49.50;101014.22;4987304;28;20038;-46
2022/04/15 08:03:20;;;;;;;8.65;1.23;;;;;;;20.30;49.33;101003.66;4988538;28;20510;-46
2022/04/15 08:05:46;;;;;;;8.70;1.83;;;;;;;20.28;49.33;101009.13;5002109;28;20121;-42
2022/04/15 08:08:12;;;;;;;8.27;1.33;;;;;;;20.27;48.87;101007.50;4986585;28;20050;-44
2022/04/15 08:10:37;;;;;;;4.40;1.15;;;;;;;20.27;48.96;101004.03;4986358;28;20065;-44
2022/04/15 08:13:03;;;;;;;8.00;1.15;;;;;;;20.26;48.85;101008.50;4986700;28;20081;-43
2022/04/15 08:15:28;;;;;;;6.45;1.08;;;;;;;20.26;48.78;101005.03;4988051;28;20525;-43
2022/04/15 08:17:54;;;;;;;7.25;2.03;;;;;;;20.26;49.32;101007.69;4988018;28;20038;-40
2022/04/15 08:20:19;;;;;;;1.77;0.80;;;;;;;20.27;49.36;101009.31;4988314;28;20026;-42
2022/04/15 08:22:45;;;;;;;4.18;1.15;;;;;;;20.27;49.95;101004.84;4981659;28;20041;-43
2022/04/15 08:25:11;;;;;;;3.90;1.48;;;;;;;20.26;50.59;101005.88;4985110;28;20030;-42
2022/04/15 08:27:36;;;;;;;5.40;1.33;;;;;;;20.26;51.86;101007.69;4984581;28;20033;-44
2022/04/15 08:30:03;;;;;;;5.68;1.65;;;;;;;20.28;53.00;101001.19;4985518;28;20416;-43
2022/04/15 08:32:33;;;;;;;1.95;0.95;;;;;;;20.26;52.58;101005.03;4986949;28;20029;-45
2022/04/15 08:35:03;;;;;;;2.60;0.98;;;;;;;20.26;51.20;101007.69;4984848;28;20030;-43
2022/04/15 08:37:28;;;;;;;5.53;2.13;;;;;;;20.22;49.21;101001.97;4984712;28;20696;-50
2022/04/15 08:39:54;;;;;;;8.95;2.72;;;;;;;20.19;47.79;100999.72;4983354;28;20026;-45
2022/04/15 08:42:23;;;;;;;8.90;3.50;;;;;;;20.16;46.84;101003.56;4986826;28;20045;-44
2022/04/15 08:44:52;;;;;;;7.90;3.38;;;;;;;20.13;46.34;100998.66;4989464;28;20027;-51
2022/04/15 08:47:18;;;;;;;10.57;3.30;;;;;;;20.15;45.90;101007.22;4983861;28;20534;-56
2022/04/15 08:49:45;;;;;;;21.45;4.15;;;;;;;20.12;44.54;101001.50;4984394;28;20110;-57
2022/04/15 08:52:14;;;;;;;6.50;3.90;;;;;;;20.07;44.64;100999.44;4983694;28;20030;-50
2022/04/15 08:54:39;;;;;;;8.23;3.83;;;;;;;20.08;44.56;100998.41;4985758;28;20669;-57
2022/04/15 08:57:06;;;;;;;9.32;3.15;;;;;;;20.08;43.92;100995.78;4986703;28;20030;-57
2022/04/15 08:59:32;;;;;;;9.80;3.97;;;;;;;20.09;43.66;100992.13;4984759;28;20034;-58
2022/04/15 09:01:57;;;;;;;7.63;3.13;;;;;;;20.07;43.52;100998.59;4983540;28;20446;-52
2022/04/15 09:04:23;;;;;;;8.82;3.70;;;;;;;20.07;43.38;100991.50;4983794;28;20414;-51
2022/04/15 09:06:56;;;;;;;8.73;3.25;;;;;;;20.09;44.41;100992.13;4986960;28;20112;-47
2022/04/15 09:09:29;;;;;;;8.73;3.45;;;;;;;20.18;45.31;100983.03;4985666;28;20038;-54
2022/04/15 09:11:59;;;;;;;8.60;3.22;;;;;;;20.27;46.69;100977.56;4983416;28;20047;-42
2022/04/15 09:14:25;;;;;;;5.35;2.72;;;;;;;20.27;46.28;100967.81;4985840;28;20734;-46
2022/04/15 09:16:51;;;;;;;6.78;2.05;;;;;;;20.26;46.14;100975.94;4987100;28;20046;-46
2022/04/15 09:19:18;;;;;;;14.77;2.40;;;;;;;20.26;46.32;100979.41;4991484;28;20027;-45
2022/04/15 09:21:52;;;;;;;6.03;1.60;;;;;;;20.25;46.41;100969.84;4989899;28;20445;-47
2022/04/15 09:24:27;;;;;;;5.30;1.83;;;;;;;20.26;46.80;100965.34;4987517;28;20042;-50
2022/04/15 09:26:53;;;;;;;3.35;1.63;;;;;;;20.27;47.24;100967.81;4989398;28;20065;-42
2022/04/15 09:29:21;;;;;;;3.67;1.40;;;;;;;20.28;47.42;100965.97;4988589;28;20135;-43
2022/04/15 09:31:47;;;;;;;5.25;1.45;;;;;;;20.28;47.75;100974.75;4989608;28;20026;-43
2022/04/15 09:34:13;;;;;;;4.57;1.23;;;;;;;20.28;47.98;100972.09;4988796;28;20389;-41
2022/04/15 09:36:40;;;;;;;2.78;1.15;;;;;;;20.30;47.88;100967.41;4988831;28;20026;-42
2022/04/15 09:39:11;;;;;;;4.82;1.38;;;;;;;20.30;47.89;100962.13;4988982;28;20117;-47
2022/04/15 09:41:38;;;;;;;3.50;1.60;;;;;;;20.32;48.20;100959.28;4986809;28;20836;-46
2022/04/15 09:44:05;;;;;;;8.65;1.10;;;;;;;20.33;48.06;100961.72;4989315;28;20038;-45
2022/04/15 09:46:31;;;;;;;1.75;1.05;;;;;;;20.35;48.12;100964.16;4987589;28;20108;-43
2022/04/15 09:49:04;;;;;;;3.75;1.40;;;;;;;20.35;48.05;100964.97;5004011;28;20496;-46
2022/04/15 09:51:54;;;;;;;3.72;1.52;;;;;;;20.36;48.04;100957.84;4988163;28;20058;-43
2022/04/15 09:54:26;;;;;;;6.05;1.10;;;;;;;20.34;47.83;100947.47;4988204;28;20033;-46
2022/04/15 09:56:57;;;;;;;2.50;1.13;;;;;;;20.34;47.73;100952.75;4987581;28;20485;-51
2022/04/15 09:59:29;;;;;;;4.20;1.30;;;;;;;20.33;47.86;100951.13;4988944;28;20461;-45
2022/04/15 10:02:02;;;;;;;8.02;1.38;;;;;;;20.31;47.75;100952.38;4988503;28;20117;-44
2022/04/15 10:04:28;;;;;;;6.85;1.30;;;;;;;20.30;47.62;100945.44;4989319;28;20053;-44
2022/04/15 10:06:54;;;;;;;7.18;1.67;;;;;;;20.29;47.46;100959.69;4987151;28;20445;-45
2022/04/15 10:09:20;;;;;;;7.47;1.40;;;;;;;20.29;47.24;100951.75;4987836;28;20378;-46
2022/04/15 10:11:47;;;;;;;5.28;1.30;;;;;;;20.28;47.23;100948.28;4984471;28;20057;-45
2022/04/15 10:14:15;;;;;;;3.67;1.00;;;;;;;20.27;47.27;100940.53;4987383;28;20058;-46
2022/04/15 10:16:42;;;;;;;23.95;4.03;;;;;;;20.30;51.87;100938.31;4988860;28;20030;-42
2022/04/15 10:19:09;;;;;;;15.20;2.88;;;;;;;20.33;53.39;100939.72;4988209;28;20108;-48
2022/04/15 10:21:37;;;;;;;12.57;2.70;;;;;;;20.31;53.58;100937.31;4988278;28;20034;-45
2022/04/15 10:24:07;;;;;;;9.27;2.13;;;;;;;20.29;53.69;100934.03;4988395;28;20154;-49
2022/04/15 10:26:43;;;;;;;5.35;1.45;;;;;;;20.27;52.46;100935.25;4987812;28;20042;-46
2022/04/15 10:29:10;;;;;;;4.68;0.90;;;;;;;20.27;50.65;100935.25;4996547;28;20037;-44
2022/04/15 10:31:44;;;;;;;8.20;0.98;;;;;;;20.25;49.63;100942.56;4986672;28;20046;-48
2022/04/15 10:34:11;;;;;;;4.28;0.77;;;;;;;20.25;48.64;100937.28;4981838;28;20112;-45
2022/04/15 10:36:37;;;;;;;4.15;0.82;;;;;;;20.24;48.07;100936.44;4987576;28;20119;-48
2022/04/15 10:39:03;;;;;;;7.20;0.70;;;;;;;20.26;47.79;100938.91;4987609;28;20431;-44
2022/04/15 10:42:01;;;;;;;4.20;0.85;;;;;;;20.25;47.47;100937.28;4991868;28;20045;-48
2022/04/15 10:44:39;;;;;;;4.40;0.70;;;;;;;20.27;47.42;100936.06;4983713;28;20041;-45
2022/04/15 10:47:22;;;;;;;6.07;0.90;;;;;;;20.27;47.06;100935.25;5007354;28;20364;-46
2022/04/15 10:50:03;;;;;;;5.15;0.90;;;;;;;20.27;46.88;100924.66;4986871;28;20120;-45
2022/04/15 10:52:30;;;;;;;2.70;0.73;;;;;;;20.29;46.75;100923.44;4987336;28;20092;-46
2022/04/15 10:55:10;;;;;;;3.92;0.60;;;;;;;20.28;46.38;100921.81;4989915;28;20041;-47
2022/04/15 10:57:40;;;;;;;2.75;0.85;;;;;;;20.31;46.59;100931.19;4983936;28;20088;-47
2022/04/15 11:03:24;;;;;;;3.63;0.73;;;;;;;20.27;45.85;100914.06;4990176;28;20101;-48
2022/04/15 11:05:52;;;;;;;3.10;0.93;;;;;;;20.28;46.02;100918.34;4988006;28;20037;-49
2022/04/15 11:08:25;;;;;;;9.82;1.23;;;;;;;20.28;45.99;100910.41;4988094;28;20527;-44
2022/04/15 11:10:58;;;;;;;2.95;0.80;;;;;;;20.27;45.78;100914.06;4988026;28;20030;-46
2022/04/15 11:13:32;;;;;;;4.03;1.00;;;;;;;20.27;45.69;100919.38;4986360;28;20070;-45
2022/04/15 11:15:57;;;;;;;4.78;0.95;;;;;;;20.26;46.17;100913.25;4990571;28;20041;-50
2022/04/15 11:18:42;;;;;;;3.40;1.10;;;;;;;20.28;47.14;100908.59;4987187;28;20026;-46
2022/04/15 11:21:08;;;;;;;5.60;1.50;;;;;;;20.30;46.55;100913.69;4985727;28;20038;-51
2022/04/15 11:23:33;;;;;;;8.40;1.48;;;;;;;20.33;46.63;100910.63;4986786;28;20033;-45
2022/04/15 11:25:59;;;;;;;5.38;1.40;;;;;;;20.36;46.33;100913.69;4980590;28;21624;-47
2022/04/15 11:28:26;;;;;;;8.32;1.83;;;;;;;20.41;44.16;100905.19;4980700;28;20036;-42
2022/04/15 11:30:51;;;;;;;7.90;1.70;;;;;;;20.41;44.00;100913.13;4983527;28;20061;-45